createdAt,value
2018-04-17T00:02:09.454Z,99.90
2018-04-17T00:04:37.760Z,99.90
2018-04-17T00:07:05.327Z,99.90
2018-04-17T00:09:32.879Z,99.90
2018-04-17T00:12:00.434Z,99.90
2018-04-17T00:14:28.024Z,99.90
2018-04-17T00:16:55.595Z,99.90
2018-04-17T00:19:23.190Z,99.90
2018-04-17T00:21:51.522Z,99.90
2018-04-17T00:24:19.083Z,99.90
2018-04-17T00:26:46.651Z,99.90
2018-04-17T00:29:14.221Z,99.90
2018-04-17T00:31:42.761Z,99.90
2018-04-17T00:34:10.345Z,99.90
2018-04-17T00:36:37.887Z,99.90
2018-04-17T00:39:06.177Z,99.90
2018-04-17T00:41:33.752Z,99.90
2018-04-17T00:44:01.290Z,99.90
2018-04-17T00:46:28.863Z,99.90
2018-04-17T00:48:56.400Z,99.90
2018-04-17T00:51:23.915Z,99.90
2018-04-17T00:54:08.969Z,99.90
2018-04-17T00:56:36.652Z,99.90
2018-04-17T00:59:04.210Z,99.90
2018-04-17T01:01:31.753Z,99.90
2018-04-17T01:04:00.149Z,99.90
2018-04-17T01:06:27.731Z,99.90
2018-04-17T01:08:55.315Z,99.90
2018-04-17T01:11:22.829Z,99.90
2018-04-17T01:13:50.425Z,99.90
2018-04-17T01:16:18.002Z,99.90
2018-04-17T01:18:45.525Z,99.90
2018-04-17T01:21:13.091Z,99.90
2018-04-17T01:23:41.248Z,99.90
2018-04-17T01:26:08.796Z,99.90
2018-04-17T01:28:36.760Z,99.90
2018-04-17T01:31:05.098Z,99.90
2018-04-17T01:33:32.671Z,99.90
2018-04-17T01:36:00.255Z,99.90
2018-04-17T01:38:28.574Z,99.90
2018-04-17T01:40:56.155Z,99.90
2018-04-17T01:43:23.678Z,99.90
2018-04-17T01:45:51.247Z,99.90
2018-04-17T01:48:18.819Z,99.90
2018-04-17T01:50:46.339Z,99.90
2018-04-17T01:53:13.881Z,99.90
2018-04-17T01:55:42.212Z,99.90
2018-04-17T01:58:09.737Z,99.90
2018-04-17T02:00:37.256Z,99.90
2018-04-17T02:03:05.586Z,99.90
2018-04-17T02:05:33.155Z,99.90
2018-04-17T02:08:00.736Z,99.90
2018-04-17T02:10:28.341Z,99.90
2018-04-17T02:12:55.837Z,99.90
2018-04-17T02:15:23.347Z,99.90
2018-04-17T02:17:50.893Z,99.90
2018-04-17T02:20:18.385Z,99.90
2018-04-17T02:22:45.869Z,99.90
2018-04-17T02:25:13.398Z,99.90
2018-04-17T02:27:40.865Z,99.90
2018-04-17T02:30:09.228Z,99.90
2018-04-17T02:32:37.519Z,99.90
2018-04-17T02:35:05.043Z,99.90
2018-04-17T02:37:33.303Z,99.90
2018-04-17T02:40:00.778Z,99.90
2018-04-17T02:42:29.048Z,99.90
2018-04-17T02:44:57.636Z,99.90
2018-04-17T02:47:25.168Z,99.90
2018-04-17T02:49:52.625Z,99.90
2018-04-17T02:52:20.160Z,99.90
2018-04-17T02:54:47.634Z,99.90
2018-04-17T02:57:15.139Z,99.90
2018-04-17T02:59:43.409Z,99.90
2018-04-17T03:02:11.648Z,99.90
2018-04-17T03:04:39.155Z,99.90
2018-04-17T03:07:07.450Z,99.90
2018-04-17T03:09:34.965Z,99.90
2018-04-17T03:12:02.458Z,99.90
2018-04-17T03:14:29.984Z,99.90
2018-04-17T03:16:58.308Z,99.90
2018-04-17T03:19:26.618Z,99.90
2018-04-17T03:21:54.177Z,99.90
2018-04-17T03:24:21.684Z,99.90
2018-04-17T03:26:49.156Z,99.90
2018-04-17T03:29:16.649Z,99.90
2018-04-17T03:31:44.180Z,99.90
2018-04-17T03:34:11.650Z,99.90
2018-04-17T03:36:39.209Z,99.90
2018-04-17T03:39:06.724Z,99.90
2018-04-17T03:41:34.210Z,99.90
2018-04-17T03:44:01.730Z,99.90
2018-04-17T03:46:29.977Z,99.90
2018-04-17T03:48:57.463Z,99.90
2018-04-17T03:51:25.774Z,99.90
2018-04-17T03:53:53.250Z,99.90
2018-04-17T03:56:20.728Z,99.90
2018-04-17T03:58:48.238Z,99.90
2018-04-17T04:01:15.743Z,99.90
2018-04-17T04:03:44.043Z,99.90
2018-04-17T04:06:12.339Z,99.90
2018-04-17T04:08:39.852Z,99.90
2018-04-17T04:11:07.367Z,99.90
2018-04-17T04:13:35.746Z,99.90
2018-04-17T04:16:03.269Z,99.90
2018-04-17T04:18:43.487Z,99.90
2018-04-17T04:21:22.755Z,99.90
2018-04-17T04:24:02.893Z,99.90
2018-04-17T04:26:32.753Z,99.90
2018-04-17T04:29:00.247Z,99.90
2018-04-17T04:31:27.764Z,99.90
2018-04-17T04:33:55.232Z,99.90
2018-04-17T04:36:22.726Z,99.90
2018-04-17T04:38:50.644Z,99.90
2018-04-17T04:41:18.147Z,99.90
2018-04-17T04:43:45.626Z,99.90
2018-04-17T04:46:13.873Z,99.90
2018-04-17T04:48:41.392Z,99.90
2018-04-17T04:51:08.907Z,99.90
2018-04-17T04:53:36.407Z,99.90
2018-04-17T04:56:03.945Z,99.90
2018-04-17T04:58:32.205Z,99.90
2018-04-17T05:01:00.484Z,99.90
2018-04-17T05:03:28.733Z,99.90
2018-04-17T05:05:56.276Z,99.90
2018-04-17T05:08:23.738Z,99.90
2018-04-17T05:10:51.250Z,99.90
2018-04-17T05:13:18.783Z,99.90
2018-04-17T05:15:46.293Z,99.90
2018-04-17T05:18:13.831Z,99.90
2018-04-17T05:20:41.326Z,99.90
2018-04-17T05:23:08.794Z,99.90
2018-04-17T05:25:36.730Z,99.90
2018-04-17T05:28:04.473Z,99.90
2018-04-17T05:30:32.018Z,99.90
2018-04-17T05:33:00.307Z,99.90
2018-04-17T05:35:28.028Z,99.90
2018-04-17T05:37:56.023Z,99.90
2018-04-17T05:40:23.607Z,99.90
2018-04-17T05:42:51.350Z,99.90
2018-04-17T05:45:18.937Z,99.90
2018-04-17T05:47:47.265Z,99.90
2018-04-17T05:50:14.775Z,99.90
2018-04-17T05:52:42.276Z,99.90
2018-04-17T05:55:09.801Z,99.90
2018-04-17T05:57:37.323Z,99.90
2018-04-17T06:00:06.516Z,99.90
2018-04-17T06:02:34.789Z,99.90
2018-04-17T06:05:03.279Z,99.90
2018-04-17T06:07:30.800Z,99.90
2018-04-17T06:09:58.438Z,99.90
2018-04-17T06:12:25.955Z,99.90
2018-04-17T06:14:54.241Z,99.90
2018-04-17T06:17:21.762Z,99.90
2018-04-17T06:19:49.271Z,99.90
2018-04-17T06:22:16.777Z,98.60
2018-04-17T06:24:44.271Z,98.60
2018-04-17T06:27:11.801Z,98.50
2018-04-17T06:29:39.330Z,98.00
2018-04-17T06:32:06.854Z,96.70
2018-04-17T06:34:34.335Z,96.20
2018-04-17T06:37:01.878Z,95.50
2018-04-17T06:39:29.386Z,95.50
2018-04-17T06:41:56.971Z,96.10
2018-04-17T06:44:24.488Z,96.10
2018-04-17T06:46:52.114Z,96.90
2018-04-17T06:49:19.769Z,96.10
2018-04-17T06:51:47.282Z,96.10
2018-04-17T06:54:14.834Z,96.40
2018-04-17T06:56:42.314Z,96.50
2018-04-17T06:59:10.557Z,95.30
2018-04-17T07:01:38.050Z,95.30
2018-04-17T07:04:06.331Z,96.10
2018-04-17T07:06:34.583Z,96.30
2018-04-17T07:09:02.108Z,96.30
2018-04-17T07:11:29.628Z,96.20
2018-04-17T07:13:58.023Z,95.60
2018-04-17T07:16:25.490Z,95.60
2018-04-17T07:18:52.961Z,94.80
2018-04-17T07:21:20.466Z,95.10
2018-04-17T07:23:48.735Z,95.00
2018-04-17T07:26:17.019Z,94.70
2018-04-17T07:28:45.324Z,94.60
2018-04-17T07:31:12.824Z,94.60
2018-04-17T07:33:40.286Z,94.70
2018-04-17T07:36:07.783Z,94.80
2018-04-17T07:38:35.346Z,94.80
2018-04-17T07:41:02.876Z,94.40
2018-04-17T07:43:31.183Z,94.10
2018-04-17T07:45:58.705Z,94.10
2018-04-17T07:48:38.323Z,95.10
2018-04-17T07:51:05.882Z,95.40
2018-04-17T07:53:33.355Z,95.10
2018-04-17T07:56:00.888Z,95.20
2018-04-17T07:58:28.417Z,95.50
2018-04-17T08:00:55.932Z,95.10
2018-04-17T08:03:23.425Z,94.80
2018-04-17T08:05:50.944Z,94.30
2018-04-17T08:08:18.433Z,94.40
2018-04-17T08:10:46.743Z,92.80
2018-04-17T08:13:14.247Z,92.80
2018-04-17T08:15:41.755Z,93.20
2018-04-17T08:18:09.272Z,89.70
2018-04-17T08:20:37.568Z,90.40
2018-04-17T08:23:05.089Z,90.40
2018-04-17T08:25:32.603Z,90.30
2018-04-17T08:28:00.115Z,91.50
2018-04-17T08:30:29.368Z,89.90
2018-04-17T08:32:56.913Z,89.80
2018-04-17T08:35:26.350Z,88.10
2018-04-17T08:37:53.813Z,87.90
2018-04-17T08:40:21.290Z,79.20
2018-04-17T08:42:49.609Z,69.50
2018-04-17T08:45:17.127Z,69.50
2018-04-17T08:47:45.405Z,67.90
2018-04-17T08:50:13.670Z,76.20
2018-04-17T08:52:41.194Z,76.00
2018-04-17T08:55:08.696Z,73.80
2018-04-17T08:57:36.952Z,79.60
2018-04-17T09:00:04.433Z,79.50
2018-04-17T09:02:32.704Z,79.90
2018-04-17T09:05:00.962Z,80.90
2018-04-17T09:07:28.489Z,80.80
2018-04-17T09:09:55.987Z,80.20
2018-04-17T09:12:24.235Z,83.50
2018-04-17T09:14:52.715Z,83.30
2018-04-17T09:17:20.256Z,82.30
2018-04-17T09:19:47.771Z,80.60
2018-04-17T09:22:16.015Z,84.70
2018-04-17T09:24:43.531Z,84.50
2018-04-17T09:27:11.003Z,82.00
2018-04-17T09:29:41.840Z,82.40
2018-04-17T09:32:09.381Z,80.10
2018-04-17T09:34:36.895Z,83.40
2018-04-17T09:37:04.386Z,86.00
2018-04-17T09:39:31.903Z,85.40
2018-04-17T09:41:59.412Z,84.60
2018-04-17T09:44:26.894Z,85.60
2018-04-17T09:46:54.413Z,87.80
2018-04-17T09:49:21.890Z,85.80
2018-04-17T09:51:49.382Z,84.30
2018-04-17T09:54:16.997Z,87.20
2018-04-17T09:56:44.493Z,82.80
2018-04-17T09:59:12.016Z,82.20
2018-04-17T10:01:39.498Z,83.80
2018-04-17T10:04:07.008Z,81.40
2018-04-17T10:06:35.256Z,86.10
2018-04-17T10:09:02.786Z,86.10
2018-04-17T10:11:30.297Z,84.70
2018-04-17T10:13:58.576Z,86.20
2018-04-17T10:16:26.875Z,85.30
2018-04-17T10:18:54.369Z,85.20
2018-04-17T10:21:21.879Z,83.90
2018-04-17T10:23:49.436Z,83.10
2018-04-17T10:26:16.912Z,81.10
2018-04-17T10:28:45.393Z,81.00
2018-04-17T10:31:12.931Z,79.50
2018-04-17T10:33:40.463Z,81.90
2018-04-17T10:36:07.937Z,80.00
2018-04-17T10:38:35.435Z,78.80
2018-04-17T10:41:02.947Z,78.60
2018-04-17T10:43:31.234Z,78.70
2018-04-17T10:45:59.557Z,78.70
2018-04-17T10:48:27.079Z,78.70
2018-04-17T10:50:54.558Z,76.40
2018-04-17T10:53:22.108Z,78.30
2018-04-17T10:55:49.618Z,76.70
2018-04-17T10:58:17.105Z,76.10
2018-04-17T11:00:44.623Z,76.90
2018-04-17T11:03:12.168Z,75.70
2018-04-17T11:05:39.707Z,73.80
2018-04-17T11:08:07.215Z,73.20
2018-04-17T11:10:35.498Z,74.80
2018-04-17T11:13:03.791Z,73.60
2018-04-17T11:15:31.288Z,73.60
2018-04-17T11:17:59.573Z,74.70
2018-04-17T11:20:29.068Z,75.40
2018-04-17T11:22:59.317Z,73.60
2018-04-17T11:25:28.809Z,73.60
2018-04-17T11:27:56.328Z,73.60
2018-04-17T11:30:23.851Z,74.40
2018-04-17T11:32:52.110Z,74.90
2018-04-17T11:35:19.621Z,74.90
2018-04-17T11:37:47.168Z,72.00
2018-04-17T11:40:14.625Z,71.10
2018-04-17T11:42:43.057Z,69.80
2018-04-17T11:45:10.533Z,73.30
2018-04-17T11:47:38.864Z,67.10
2018-04-17T11:50:06.370Z,67.10
2018-04-17T11:52:36.583Z,66.20
2018-04-17T11:55:04.857Z,65.80
2018-04-17T11:57:33.376Z,65.70
2018-04-17T12:00:01.638Z,67.50
2018-04-17T12:02:29.890Z,66.00
2018-04-17T12:04:59.136Z,63.90
2018-04-17T12:07:26.657Z,63.10
2018-04-17T12:09:54.944Z,64.50
2018-04-17T12:12:23.240Z,63.40
2018-04-17T12:14:50.767Z,63.40
2018-04-17T12:17:19.918Z,63.90
2018-04-17T12:19:47.392Z,63.80
2018-04-17T12:22:14.859Z,64.40
2018-04-17T12:24:42.382Z,66.80
2018-04-17T12:27:09.894Z,64.10
2018-04-17T12:29:38.146Z,66.10
2018-04-17T12:32:05.665Z,66.10
2018-04-17T12:34:33.209Z,61.80
2018-04-17T12:37:01.493Z,62.20
2018-04-17T12:39:29.939Z,62.10
2018-04-17T12:41:58.225Z,63.50
2018-04-17T12:44:26.516Z,66.40
2018-04-17T12:46:54.967Z,66.40
2018-04-17T12:49:23.208Z,70.20
2018-04-17T12:51:50.741Z,70.20
2018-04-17T12:54:18.268Z,68.60
2018-04-17T12:56:46.539Z,68.40
2018-04-17T12:59:14.794Z,66.40
2018-04-17T13:01:42.295Z,65.50
2018-04-17T13:04:09.825Z,65.30
2018-04-17T13:06:37.357Z,68.00
2018-04-17T13:09:04.929Z,68.40
2018-04-17T13:11:36.289Z,67.50
2018-04-17T13:14:04.585Z,68.40
2018-04-17T13:16:33.040Z,68.40
2018-04-17T13:19:00.565Z,69.90
2018-04-17T13:21:28.049Z,70.60
2018-04-17T13:23:55.546Z,70.40
2018-04-17T13:26:23.132Z,68.10
2018-04-17T13:28:50.998Z,69.30
2018-04-17T13:31:18.541Z,68.20
2018-04-17T13:33:46.079Z,64.60
2018-04-17T13:36:13.709Z,65.80
2018-04-17T13:38:41.223Z,64.10
2018-04-17T13:41:08.721Z,63.60
2018-04-17T13:43:36.269Z,66.80
2018-04-17T13:46:03.793Z,67.80
2018-04-17T13:48:31.289Z,61.40
2018-04-17T13:50:58.812Z,64.20
2018-04-17T13:53:26.303Z,67.90
2018-04-17T13:55:53.844Z,64.60
2018-04-17T13:58:21.347Z,64.40
2018-04-17T14:00:49.647Z,66.60
2018-04-17T14:03:17.192Z,66.60
2018-04-17T14:05:45.437Z,64.40
2018-04-17T14:08:12.918Z,64.30
2018-04-17T14:10:41.185Z,63.20
2018-04-17T14:13:09.454Z,64.30
2018-04-17T14:15:36.949Z,64.30
2018-04-17T14:18:04.488Z,65.40
2018-04-17T14:20:32.730Z,65.10
2018-04-17T14:23:00.235Z,65.00
2018-04-17T14:25:27.771Z,65.90
2018-04-17T14:27:56.065Z,65.40
2018-04-17T14:30:24.347Z,65.60
2018-04-17T14:32:51.838Z,65.60
2018-04-17T14:35:19.371Z,66.20
2018-04-17T14:37:46.918Z,68.60
2018-04-17T14:40:14.444Z,67.90
2018-04-17T14:42:41.934Z,69.20
2018-04-17T14:45:09.419Z,72.10
2018-04-17T14:47:36.955Z,73.00
2018-04-17T14:50:04.444Z,71.60
2018-04-17T14:52:31.955Z,72.60
2018-04-17T14:55:01.172Z,73.50
2018-04-17T14:57:28.701Z,73.50
2018-04-17T14:59:57.046Z,74.30
2018-04-17T15:02:25.504Z,74.30
2018-04-17T15:04:54.001Z,72.30
2018-04-17T15:07:26.472Z,74.60
2018-04-17T15:09:53.954Z,71.90
2018-04-17T15:12:22.226Z,71.80
2018-04-17T15:14:49.791Z,71.80
2018-04-17T15:17:17.243Z,72.50
2018-04-17T15:19:46.350Z,71.10
2018-04-17T15:22:14.795Z,69.50
2018-04-17T15:24:43.340Z,69.50
2018-04-17T15:27:10.864Z,71.30
2018-04-17T15:29:39.311Z,71.60
2018-04-17T15:32:06.848Z,71.60
2018-04-17T15:34:34.367Z,71.70
2018-04-17T15:37:02.702Z,73.40
2018-04-17T15:39:30.314Z,72.80
2018-04-17T15:41:58.728Z,71.50
2018-04-17T15:44:26.277Z,71.40
2018-04-17T15:46:53.807Z,70.90
2018-04-17T15:49:22.178Z,73.50
2018-04-17T15:51:50.619Z,73.40
2018-04-17T15:54:18.118Z,73.00
2018-04-17T15:56:46.510Z,71.50
2018-04-17T15:59:14.758Z,73.00
2018-04-17T16:01:42.226Z,73.10
2018-04-17T16:04:10.527Z,73.80
2018-04-17T16:06:38.014Z,73.70
2018-04-17T16:09:06.484Z,73.20
2018-04-17T16:11:33.986Z,72.80
2018-04-17T16:14:01.782Z,72.10
2018-04-17T16:16:29.303Z,72.00
2018-04-17T16:18:56.870Z,73.30
2018-04-17T16:21:24.416Z,72.30
2018-04-17T16:23:51.945Z,73.00
2018-04-17T16:26:19.524Z,73.80
2018-04-17T16:28:47.065Z,72.80
2018-04-17T16:31:15.614Z,72.90
2018-04-17T16:33:45.815Z,75.30
2018-04-17T16:36:16.017Z,74.30
2018-04-17T16:38:43.579Z,74.20
2018-04-17T16:41:11.129Z,74.50
2018-04-17T16:43:38.628Z,73.80
2018-04-17T16:46:06.948Z,75.40
2018-04-17T16:48:34.490Z,75.30
2018-04-17T16:51:02.017Z,74.50
2018-04-17T16:53:29.529Z,74.70
2018-04-17T16:55:57.018Z,74.70
2018-04-17T16:58:24.561Z,75.60
2018-04-17T17:00:52.084Z,75.00
2018-04-17T17:03:19.583Z,75.90
2018-04-17T17:05:48.046Z,76.80
2018-04-17T17:08:16.522Z,75.80
2018-04-17T17:10:44.056Z,77.60
2018-04-17T17:13:11.558Z,75.80
2018-04-17T17:15:39.059Z,75.70
2018-04-17T17:18:06.573Z,76.10
2018-04-17T17:20:34.065Z,76.00
2018-04-17T17:23:01.603Z,77.30
2018-04-17T17:25:29.175Z,77.50
2018-04-17T17:27:57.479Z,78.30
2018-04-17T17:30:24.970Z,78.30
2018-04-17T17:32:52.487Z,78.40
2018-04-17T17:35:20.018Z,78.80
2018-04-17T17:40:22.155Z,80.30
2018-04-17T17:42:49.652Z,81.30
2018-04-17T17:45:17.134Z,82.00
2018-04-17T17:47:44.681Z,82.50
2018-04-17T17:50:12.224Z,83.10
2018-04-17T17:52:39.722Z,83.60
2018-04-17T17:55:07.268Z,84.60
2018-04-17T17:57:34.786Z,84.50
2018-04-17T18:00:02.317Z,85.20
2018-04-17T18:02:29.842Z,85.40
2018-04-17T18:04:57.414Z,86.50
2018-04-17T18:07:24.924Z,87.40
2018-04-17T18:09:52.459Z,89.30
2018-04-17T18:12:20.866Z,90.10
2018-04-17T18:14:49.180Z,90.80
2018-04-17T18:17:17.018Z,90.70
2018-04-17T18:19:45.301Z,91.30
2018-04-17T18:22:13.608Z,91.70
2018-04-17T18:24:42.231Z,91.70
2018-04-17T18:27:09.758Z,92.00
2018-04-17T18:29:37.478Z,92.10
2018-04-17T18:32:05.949Z,92.50
2018-04-17T18:34:34.239Z,92.40
2018-04-17T18:37:02.579Z,92.80
2018-04-17T18:39:30.121Z,92.80
2018-04-17T18:41:57.823Z,93.10
2018-04-17T18:44:25.339Z,93.40
2018-04-17T18:46:52.928Z,93.80
2018-04-17T18:49:20.477Z,94.00
2018-04-17T18:51:47.963Z,94.10
2018-04-17T18:54:16.245Z,94.70
2018-04-17T18:56:43.770Z,94.60
2018-04-17T18:59:11.274Z,94.50
2018-04-17T19:01:38.791Z,94.80
2018-04-17T19:04:06.324Z,95.20
2018-04-17T19:06:33.833Z,95.20
2018-04-17T19:09:01.428Z,95.50
2018-04-17T19:11:29.005Z,95.90
2018-04-17T19:13:56.483Z,96.10
2018-04-17T19:16:24.044Z,96.30
2018-04-17T19:18:51.591Z,96.50
2018-04-17T19:21:19.114Z,96.40
2018-04-17T19:23:47.517Z,97.10
2018-04-17T19:26:15.014Z,97.10
2018-04-17T19:28:43.342Z,97.50
2018-04-17T19:31:13.016Z,97.50
2018-04-17T19:33:41.339Z,97.90
2018-04-17T19:36:08.878Z,97.90
2018-04-17T19:38:36.408Z,97.90
2018-04-17T19:41:04.693Z,97.60
2018-04-17T19:43:32.403Z,97.60
2018-04-17T19:46:00.020Z,98.10
2018-04-17T19:48:27.561Z,98.30
2018-04-17T19:50:55.987Z,98.00
2018-04-17T19:53:24.489Z,98.00
2018-04-17T19:55:53.024Z,98.70
2018-04-17T19:58:20.531Z,98.80
2018-04-17T20:00:48.090Z,99.10
2018-04-17T20:03:16.550Z,99.40
2018-04-17T20:05:44.220Z,99.60
2018-04-17T20:08:11.787Z,99.80
2018-04-17T20:10:39.595Z,99.90
2018-04-17T20:13:07.968Z,99.90
2018-04-17T20:15:36.427Z,99.90
2018-04-17T20:18:04.079Z,99.90
2018-04-17T20:20:31.781Z,99.90
2018-04-17T20:22:59.349Z,99.90
2018-04-17T20:25:26.912Z,99.90
2018-04-17T20:27:54.371Z,99.90
2018-04-17T20:30:21.912Z,99.90
2018-04-17T20:32:50.219Z,99.90
2018-04-17T20:35:17.735Z,99.90
2018-04-17T20:37:46.039Z,99.90
2018-04-17T20:40:13.548Z,99.90
2018-04-17T20:42:41.054Z,99.90
2018-04-17T20:45:08.642Z,99.90
2018-04-17T20:47:36.185Z,99.90
2018-04-17T20:50:03.664Z,99.90
2018-04-17T20:52:31.229Z,99.90
2018-04-17T20:54:58.807Z,99.90
2018-04-17T20:57:27.097Z,99.90
2018-04-17T20:59:55.400Z,99.90
2018-04-17T21:02:22.913Z,99.90
2018-04-17T21:04:50.382Z,99.90
2018-04-17T21:07:18.712Z,99.90
2018-04-17T21:09:46.247Z,99.90
2018-04-17T21:12:13.773Z,99.90
2018-04-17T21:14:41.316Z,99.90
2018-04-17T21:17:08.808Z,99.90
2018-04-17T21:19:36.336Z,99.90
2018-04-17T21:22:03.835Z,99.90
2018-04-17T21:24:31.345Z,99.90
2018-04-17T21:26:58.883Z,99.90
2018-04-17T21:29:26.416Z,99.90
2018-04-17T21:31:53.973Z,99.90
2018-04-17T21:34:21.495Z,99.90
2018-04-17T21:36:49.035Z,99.90
2018-04-17T21:39:16.530Z,99.90
2018-04-17T21:41:44.079Z,99.90
2018-04-17T21:44:12.353Z,99.90
2018-04-17T21:46:40.675Z,99.90
2018-04-17T21:49:08.206Z,99.90
2018-04-17T21:51:36.519Z,99.90
2018-04-17T21:54:04.021Z,99.90
2018-04-17T21:56:32.250Z,99.90
2018-04-17T21:58:59.809Z,99.90
2018-04-17T22:01:29.058Z,99.90
2018-04-17T22:03:58.331Z,99.90
2018-04-17T22:06:25.825Z,99.90
2018-04-17T22:08:54.070Z,99.90
2018-04-17T22:11:21.597Z,99.90
2018-04-17T22:13:49.094Z,99.90
2018-04-17T22:16:16.583Z,99.90
2018-04-17T22:18:44.132Z,99.90
2018-04-17T22:21:12.406Z,99.90
2018-04-17T22:23:40.693Z,99.90
2018-04-17T22:26:08.234Z,99.90
2018-04-17T22:28:36.512Z,99.90
2018-04-17T22:31:04.804Z,99.90
2018-04-17T22:33:32.364Z,99.90
2018-04-17T22:35:59.923Z,99.90
2018-04-17T22:38:27.435Z,99.90
2018-04-17T22:40:55.787Z,99.90
2018-04-17T22:43:23.332Z,99.90
2018-04-17T22:45:50.806Z,99.90
2018-04-17T22:48:18.306Z,99.90
2018-04-17T22:50:45.854Z,99.90
2018-04-17T22:53:13.360Z,99.90
2018-04-17T22:55:40.905Z,99.90
2018-04-17T22:58:08.445Z,99.90
2018-04-17T23:00:36.728Z,99.90
2018-04-17T23:03:05.033Z,99.90
2018-04-17T23:05:32.526Z,99.90
2018-04-17T23:08:00.050Z,99.90
2018-04-17T23:10:27.597Z,99.90
2018-04-17T23:12:55.106Z,99.90
2018-04-17T23:15:22.592Z,99.90
2018-04-17T23:17:50.894Z,99.90
2018-04-17T23:20:18.448Z,99.90
2018-04-17T23:22:45.919Z,99.90
2018-04-17T23:25:13.424Z,99.90
2018-04-17T23:27:40.955Z,99.90
2018-04-17T23:30:08.495Z,99.90
2018-04-17T23:32:36.039Z,99.90
2018-04-17T23:35:03.580Z,99.90
2018-04-17T23:37:31.818Z,99.90
2018-04-17T23:39:59.365Z,99.90
2018-04-17T23:42:26.850Z,99.90
2018-04-17T23:44:54.340Z,99.90
2018-04-17T23:47:21.842Z,99.90
2018-04-17T23:49:49.787Z,99.90
2018-04-17T23:52:17.268Z,99.90
2018-04-17T23:54:44.811Z,99.90
2018-04-17T23:57:12.353Z,99.90
2018-04-17T23:59:39.834Z,99.90
